Forside
METAR-TAF:

METAR-TAF

Lufthavne :

Pontoise, Frankrig

Breddekreds: 49-05-48N, længdekreds: 002-02-27E, højde: 99 m

Aktuelle vejr

Denne rapport blev lavet for 27 minutter siden, kl. 19:00 UTC
Vind 5 kt fra vestsydvest
Temperatur 6°C
Fugtighed 87%
Tryk 1014 hPa
Sigt 10 km eller mere
ingen skyer under 1500m og ingen cumulonimbus

METAR: LFPT 021900Z AUTO 25005KT CAVOK 06/04 Q1014

Tid: 20:27 (19:27 UTC)


TAF: fraværende

Vejrobservationer og prognoser fra mere end 4000 lufthavne (METAR og TAF).

De gule og røde prikker repræsenterer de meteorologiske stationer.

Flyt musen over at se navnet på stationen.

Så klik over at se vejr observationer og prognoser.

At skifte det kort: Klik på de grønne knapper med et sort kors for at zoome ind; på den grønne knap med en bindestreg for at zoome ud; eller på de grønne pile for tilstødende kort.


METAR-TAF: